CMB832 Details

Departure: Bagram Air Base (OAIX)
Arrival: Ramstein Air Force Base (ETAR) at N/A
Notes: USTRANSCOM CONTRACT FLIGHT


Current Weather Information
OAIX 250458Z 01005KT 9999 SCT160 BKN200 28/12 A2994 RMK AO2A SLP047 T02750120 $
ETAR 250456Z 00000KT 9999 CLR 11/11 A3010 RMK AO2A SLP188 T01100110 $